Time;durP1;ratioP1;P1;durP2;ratioP2;P2;SDS_P1;SDS_P2;PMS_P1;PMS_P2;Temp;Humidity;BMP_temperature;BMP_pressure;BME280_temperature;BME280_humidity;BME280_pressure;Samples;Min_cycle;Max_cycle;Signal;HPM_P1;HPM_P2
2022/08/22 00:02:25;;;;;;;7.03;3.27;;;;;;;18.34;81.82;101693.16;4856554;29;20751;-86
2022/08/22 00:05:09;;;;;;;9.67;3.07;;;;;;;18.38;81.47;101696.66;4870976;29;20204;-84
2022/08/22 00:07:55;;;;;;;9.70;3.10;;;;;;;18.30;81.81;101698.34;4852198;29;20286;-84
2022/08/22 00:10:43;;;;;;;10.07;3.10;;;;;;;18.26;81.32;101705.25;4879682;29;20219;-85
2022/08/22 00:13:18;;;;;;;6.67;3.03;;;;;;;18.20;82.23;101701.78;4884922;29;20212;-85
2022/08/22 00:15:56;;;;;;;8.27;3.30;;;;;;;18.14;82.73;101701.78;4866061;29;20191;-83
2022/08/22 00:18:44;;;;;;;8.33;3.53;;;;;;;18.12;82.26;101706.94;4884579;29;20274;-83
2022/08/22 00:21:15;;;;;;;7.73;3.00;;;;;;;18.00;83.19;101713.84;4882684;29;20698;-83
2022/08/22 00:24:23;;;;;;;6.13;3.13;;;;;;;17.95;83.08;101710.31;4875663;29;20210;-84
2022/08/22 00:27:01;;;;;;;8.83;3.20;;;;;;;17.86;83.29;101718.06;4871035;29;20193;-83
2022/08/22 00:29:38;;;;;;;6.50;3.07;;;;;;;17.83;83.61;101716.34;4885547;29;20200;-82
2022/08/22 00:32:13;;;;;;;5.03;3.03;;;;;;;17.82;83.90;101719.78;4869211;29;20290;-83
2022/08/22 00:34:57;;;;;;;5.00;2.97;;;;;;;17.70;84.12;101714.56;4870582;29;20225;-82
2022/08/22 00:37:38;;;;;;;6.90;2.90;;;;;;;17.70;83.40;101708.53;4884846;29;20310;-83
2022/08/22 00:40:30;;;;;;;5.47;3.20;;;;;;;17.64;83.55;101722.31;4859128;29;20204;-83
2022/08/22 00:43:29;;;;;;;6.70;3.17;;;;;;;17.62;83.45;101712.78;4860109;29;20583;-85
2022/08/22 00:46:25;;;;;;;4.97;3.20;;;;;;;17.63;82.75;101711.94;4861685;29;20200;-87
2022/08/22 00:49:06;;;;;;;7.47;2.93;;;;;;;17.61;83.54;101717.13;4869801;29;20667;-87
2022/08/22 00:51:53;;;;;;;7.50;3.37;;;;;;;17.65;83.44;101710.22;4881717;29;20207;-85
2022/08/22 00:54:21;;;;;;;6.83;3.20;;;;;;;17.64;83.24;101716.28;4852328;29;20231;-83
2022/08/22 00:56:54;;;;;;;6.30;3.10;;;;;;;17.62;83.83;101715.38;4891104;29;20652;-84
2022/08/22 00:59:20;;;;;;;7.27;3.37;;;;;;;17.66;83.78;101718.00;4870869;29;20199;-84
2022/08/22 01:02:23;;;;;;;5.97;3.37;;;;;;;17.63;84.52;101719.69;4883391;29;20310;-86
2022/08/22 01:05:17;;;;;;;6.30;3.40;;;;;;;17.62;84.89;101715.38;4867424;29;20880;-83
2022/08/22 01:08:10;;;;;;;5.50;2.83;;;;;;;17.60;85.25;101712.78;4875308;29;20200;-84
2022/08/22 01:11:03;;;;;;;6.13;3.10;;;;;;;17.64;85.07;101714.53;4869315;29;20713;-83
2022/08/22 01:13:47;;;;;;;6.40;3.47;;;;;;;17.66;85.54;101715.41;4870493;29;20268;-83
2022/08/22 01:16:35;;;;;;;5.10;3.10;;;;;;;17.65;85.37;101711.09;4887181;29;20210;-82
2022/08/22 01:19:22;;;;;;;7.30;3.07;;;;;;;17.67;85.66;101706.78;4884883;29;20227;-82
2022/08/22 01:22:17;;;;;;;7.27;2.80;;;;;;;17.68;85.08;101692.97;4868425;29;20219;-83
2022/08/22 01:27:55;;;;;;;9.27;3.87;;;;;;;17.73;86.54;101703.38;4871623;29;20207;-85
2022/08/22 01:30:42;;;;;;;7.03;3.70;;;;;;;17.79;86.58;101705.97;4880336;29;20304;-84
2022/08/22 01:33:10;;;;;;;8.83;3.80;;;;;;;17.82;86.83;101703.41;4869810;29;20242;-85
2022/08/22 01:35:59;;;;;;;6.63;3.33;;;;;;;17.83;86.42;101705.13;4877391;29;20244;-84
2022/08/22 01:38:43;;;;;;;8.27;3.57;;;;;;;17.82;86.43;101711.16;4864680;29;20679;-85
2022/08/22 01:41:19;;;;;;;7.43;3.67;;;;;;;17.78;86.27;101712.00;4889880;29;20301;-84
2022/08/22 01:43:47;;;;;;;8.53;3.67;;;;;;;17.79;86.04;101709.44;4856523;29;20603;-83
2022/08/22 01:46:31;;;;;;;10.10;4.20;;;;;;;17.82;85.70;101704.25;4867496;29;20274;-83
2022/08/22 01:49:18;;;;;;;7.27;3.47;;;;;;;17.78;86.11;101705.09;4874194;29;20597;-85
2022/08/22 01:51:49;;;;;;;7.83;3.50;;;;;;;17.79;86.79;101704.25;4881489;29;20246;-84
2022/08/22 01:54:36;;;;;;;6.17;3.57;;;;;;;17.80;86.44;101703.38;4876471;29;20219;-84
2022/08/22 01:57:06;;;;;;;9.17;3.20;;;;;;;17.80;86.07;101705.97;4859480;29;20196;-84
2022/08/22 01:59:46;;;;;;;6.27;3.60;;;;;;;17.81;86.65;101709.41;4885971;29;20204;-86
2022/08/22 02:02:30;;;;;;;9.73;3.73;;;;;;;17.79;86.09;101700.78;4894109;29;20560;-83
2022/08/22 02:05:08;;;;;;;9.87;3.33;;;;;;;17.77;86.10;101698.19;4891589;29;20256;-85
2022/08/22 02:07:47;;;;;;;10.10;3.93;;;;;;;17.80;86.19;101705.09;4897528;29;20192;-87
2022/08/22 02:10:44;;;;;;;9.13;3.63;;;;;;;17.79;85.46;101698.19;4898959;29;20299;-86
2022/08/22 02:13:12;;;;;;;7.73;4.00;;;;;;;17.83;85.55;101700.78;4867624;29;20268;-84
2022/08/22 02:15:37;;;;;;;7.77;3.60;;;;;;;17.85;85.41;101708.56;4872348;29;20327;-84
2022/08/22 02:18:07;;;;;;;9.70;3.43;;;;;;;17.85;85.78;101708.56;4877397;29;20246;-83
2022/08/22 02:21:10;;;;;;;10.23;3.40;;;;;;;17.86;85.78;101699.94;4895344;29;20219;-84
2022/08/22 02:23:57;;;;;;;10.83;3.60;;;;;;;17.84;86.17;101705.13;4895660;29;20544;-83
2022/08/22 02:27:04;;;;;;;9.10;3.87;;;;;;;17.84;85.99;101694.78;4898341;29;20191;-86
2022/08/22 02:29:47;;;;;;;8.90;3.90;;;;;;;17.83;85.65;101698.19;4863512;29;20193;-83
2022/08/22 02:32:32;;;;;;;6.83;3.13;;;;;;;17.84;85.76;101705.13;4864166;29;20230;-82
2022/08/22 02:35:20;;;;;;;9.47;3.73;;;;;;;17.89;85.13;101694.78;4869465;29;20187;-85
2022/08/22 02:37:56;;;;;;;10.80;3.90;;;;;;;17.91;85.51;101703.44;4871017;29;20196;-82
2022/08/22 02:43:34;;;;;;;11.40;3.83;;;;;;;17.90;85.48;101699.97;4907447;29;20222;-82
2022/08/22 02:47:02;;;;;;;5.90;3.40;;;;;;;17.88;85.85;101703.41;4900839;29;20194;-82
2022/08/22 02:50:22;;;;;;;8.40;3.87;;;;;;;17.85;86.21;101698.22;4869731;29;20211;-82
2022/08/22 02:53:23;;;;;;;7.73;3.53;;;;;;;17.84;85.99;101704.25;4857892;29;20305;-85
2022/08/22 02:56:03;;;;;;;5.80;3.33;;;;;;;17.86;85.71;101700.81;4848463;29;20726;-83
2022/08/22 02:59:00;;;;;;;7.13;3.83;;;;;;;17.86;85.83;101695.63;4852805;29;20188;-82
2022/08/22 03:02:16;;;;;;;10.67;3.53;;;;;;;17.85;86.16;101696.50;4917021;29;20237;-84
2022/08/22 03:09:16;;;;;;;11.20;3.90;;;;;;;17.81;86.92;101701.63;4908910;29;20191;-82
2022/08/22 03:12:00;;;;;;;8.60;4.27;;;;;;;17.85;86.23;101696.50;4929572;23;20705;-85
2022/08/22 03:14:38;;;;;;;8.33;4.17;;;;;;;17.87;86.40;101699.09;4891063;29;21971;-85
2022/08/22 03:17:19;;;;;;;9.57;4.03;;;;;;;17.87;86.23;101694.75;4903009;29;20190;-87
2022/08/22 03:20:44;;;;;;;8.63;3.30;;;;;;;17.87;86.35;101697.34;4913141;29;20199;-84
2022/08/22 03:23:24;;;;;;;9.43;3.73;;;;;;;17.89;86.39;101697.34;4885674;29;20270;-84
2022/08/22 03:26:29;;;;;;;9.97;3.80;;;;;;;17.89;86.70;101699.94;4909240;29;20209;-88
2022/08/22 03:29:43;;;;;;;9.13;3.87;;;;;;;17.91;86.36;101696.50;4904034;29;20234;-85
2022/08/22 03:33:00;;;;;;;10.80;4.43;;;;;;;17.88;86.60;101704.28;4886954;29;20244;-83
2022/08/22 03:36:00;;;;;;;10.03;3.50;;;;;;;17.88;86.99;101700.81;4872757;29;20219;-81
2022/08/22 03:38:32;;;;;;;8.10;4.17;;;;;;;17.89;86.72;101706.00;4894431;29;20195;-82
2022/08/22 03:41:06;;;;;;;8.43;3.77;;;;;;;17.89;86.48;101694.78;4899699;29;20258;-83
2022/08/22 03:44:50;;;;;;;7.43;3.40;;;;;;;17.87;86.61;101699.94;4885407;29;20218;-85
2022/08/22 03:48:07;;;;;;;6.07;3.20;;;;;;;17.86;86.92;101697.34;4866453;29;20214;-84
2022/08/22 03:51:01;;;;;;;9.20;3.60;;;;;;;17.82;87.37;101700.81;4906720;29;20226;-83
2022/08/22 03:54:08;;;;;;;6.63;3.70;;;;;;;17.86;87.09;101699.94;4912764;29;20202;-82
2022/08/22 03:57:05;;;;;;;9.30;4.13;;;;;;;17.85;87.51;101701.69;4886549;29;20198;-85
2022/08/22 04:00:02;;;;;;;8.13;3.63;;;;;;;17.84;86.88;101706.84;4907854;29;20282;-84
2022/08/22 04:03:21;;;;;;;9.90;3.90;;;;;;;17.84;86.87;101699.94;4901123;29;20730;-84
2022/08/22 04:06:21;;;;;;;12.17;3.57;;;;;;;17.85;87.02;101699.09;4887863;29;20193;-85
2022/08/22 04:09:49;;;;;;;10.80;3.90;;;;;;;17.85;87.15;101701.69;4893541;29;20195;-82
2022/08/22 04:12:52;;;;;;;6.93;3.53;;;;;;;17.80;87.35;101702.50;4901681;29;20579;-83
2022/08/22 04:16:20;;;;;;;7.07;3.67;;;;;;;17.84;87.29;101702.53;4908058;29;20199;-84
2022/08/22 04:19:43;;;;;;;9.73;3.23;;;;;;;17.85;87.34;101706.84;4896575;29;20698;-83
2022/08/22 04:22:46;;;;;;;7.73;3.60;;;;;;;17.85;87.39;101705.97;4880056;29;20300;-82
2022/08/22 04:29:39;;;;;;;7.00;3.43;;;;;;;17.85;87.00;101708.56;4907324;29;20223;-82
2022/08/22 04:32:25;;;;;;;11.07;4.33;;;;;;;17.84;87.42;101709.44;4877630;29;20218;-83
2022/08/22 04:39:45;;;;;;;9.57;3.73;;;;;;;17.88;87.31;101712.06;4869581;29;20233;-84
2022/08/22 04:42:55;;;;;;;10.10;3.43;;;;;;;17.89;87.26;101718.09;4895239;29;20206;-84
2022/08/22 04:46:06;;;;;;;10.00;3.80;;;;;;;17.90;87.67;101723.28;4855911;29;20204;-85
2022/08/22 04:49:04;;;;;;;10.13;4.43;;;;;;;17.94;87.43;101727.63;4901253;29;20242;-84
2022/08/22 04:52:15;;;;;;;10.60;3.77;;;;;;;17.95;87.26;101729.34;4892419;29;20215;-86
2022/08/22 04:56:04;;;;;;;;;;;;;;;;;;;;;
2022/08/22 04:59:26;;;;;;;7.80;4.00;;;;;;;17.98;87.43;101737.16;4872718;29;20203;-83
2022/08/22 05:02:19;;;;;;;9.37;3.93;;;;;;;18.03;87.13;101738.03;4821551;29;20248;-85
2022/08/22 05:05:48;;;;;;;9.57;4.03;;;;;;;18.08;86.41;101741.50;4836724;29;20227;-82
2022/08/22 05:16:13;;;;;;;;;;;;;;;;;;;;;
2022/08/22 05:22:30;;;;;;;10.97;4.07;;;;;;;18.31;86.03;101755.41;4901776;29;20223;-82
2022/08/22 05:25:06;;;;;;;8.90;3.53;;;;;;;18.34;85.59;101758.00;4912856;29;20194;-82
2022/08/22 05:28:20;;;;;;;;;;;;;;;;;;;;;
2022/08/22 05:30:55;;;;;;;9.40;3.70;;;;;;;18.42;85.20;101763.25;4916066;29;20210;-82
2022/08/22 05:48:15;;;;;;;9.37;3.93;;;;;;;18.88;83.96;101759.84;4910357;29;20185;-83
2022/08/22 05:52:03;;;;;;;10.90;3.83;;;;;;;19.00;82.91;101755.50;4897197;29;20213;-83
2022/08/22 05:55:21;;;;;;;9.77;3.30;;;;;;;19.17;81.93;101756.34;4893258;29;20237;-84
2022/08/22 05:58:34;;;;;;;11.40;3.53;;;;;;;19.20;82.11;101755.50;4907282;29;20238;-83
2022/08/22 06:12:42;;;;;;;12.70;4.33;;;;;;;20.01;80.21;101761.38;4824283;29;20783;-82
2022/08/22 06:16:23;;;;;;;;;;;;;;;;;;;;;
2022/08/22 06:19:39;;;;;;;15.17;4.17;;;;;;;20.40;78.43;101763.78;4791567;29;20239;-83
2022/08/22 06:23:20;;;;;;;14.77;3.80;;;;;;;20.48;78.62;101763.75;4737555;30;20209;-84
2022/08/22 06:30:22;;;;;;;13.33;3.53;;;;;;;20.84;75.76;101771.31;4801112;29;20204;-83
2022/08/22 06:37:18;;;;;;;13.37;4.07;;;;;;;20.58;77.62;101781.03;4887728;29;20311;-82
2022/08/22 06:39:52;;;;;;;11.57;3.67;;;;;;;20.64;77.54;101783.63;4878005;29;20242;-82
2022/08/22 06:42:47;;;;;;;9.67;3.70;;;;;;;20.69;76.93;101790.50;4902714;29;20672;-83
2022/08/22 06:45:25;;;;;;;10.07;3.60;;;;;;;20.66;76.68;101795.75;4863975;29;20227;-86
2022/08/22 06:48:20;;;;;;;12.10;3.20;;;;;;;20.73;76.54;101787.00;4879190;29;20243;-86
2022/08/22 06:51:34;;;;;;;11.17;3.40;;;;;;;20.78;75.66;101787.81;4885178;29;20226;-84
2022/08/22 06:54:16;;;;;;;8.47;3.33;;;;;;;20.82;76.02;101793.91;4891327;29;20225;-85
2022/08/22 06:56:50;;;;;;;8.67;3.20;;;;;;;20.87;76.08;101790.38;4894642;29;20182;-84
2022/08/22 06:59:44;;;;;;;10.73;3.57;;;;;;;20.92;76.23;101791.22;4871476;29;20202;-84
2022/08/22 07:07:14;;;;;;;;;;;;;;;;;;;;;
2022/08/22 07:09:57;;;;;;;;;;;;;;;;;;;;;
2022/08/22 07:13:13;;;;;;;;;;;;;;;;;;;;;
2022/08/22 07:16:25;;;;;;;9.00;2.97;;;;;;;21.55;74.75;101803.69;4908613;29;20206;-83
2022/08/22 07:24:17;;;;;;;9.93;3.13;;;;;;;21.68;73.78;101794.88;4898138;29;20234;-86
2022/08/22 07:35:36;;;;;;;10.90;2.77;;;;;;;23.16;67.02;101790.28;4866625;29;21003;-83
2022/08/22 07:38:52;;;;;;;7.37;2.67;;;;;;;23.47;66.28;101794.09;4885270;29;20194;-84
2022/08/22 07:41:57;;;;;;;;;;;;;;;;;;;;;
2022/08/22 07:44:52;;;;;;;9.37;3.07;;;;;;;23.93;64.17;101798.47;4913885;29;20187;-84
2022/08/22 07:47:51;;;;;;;7.97;2.60;;;;;;;23.96;62.81;101794.91;4888937;29;20195;-86
2022/08/22 07:51:06;;;;;;;9.30;2.77;;;;;;;24.12;62.25;101801.59;4879636;29;20229;-84
2022/08/22 07:54:10;;;;;;;8.83;2.70;;;;;;;24.61;61.57;101797.88;4874258;29;20229;-84
2022/08/22 07:57:00;;;;;;;9.50;3.22;;;;;;;24.72;60.57;101797.66;4910113;29;20234;-83
2022/08/22 07:59:30;;;;;;;8.23;2.73;;;;;;;24.76;61.03;101794.91;4895041;29;20273;-84
2022/08/22 08:02:32;;;;;;;8.20;3.13;;;;;;;25.03;59.77;101789.00;4879030;29;20222;-83
2022/08/22 08:05:42;;;;;;;8.63;2.65;;;;;;;25.31;58.84;101797.94;4900922;29;20213;-83
2022/08/22 08:08:30;;;;;;;12.15;2.72;;;;;;;25.27;57.91;101800.69;4912001;29;20186;-81
2022/08/22 08:12:06;;;;;;;10.57;3.42;;;;;;;25.16;57.78;101793.03;4899401;29;20215;-83
2022/08/22 08:15:22;;;;;;;8.07;2.80;;;;;;;25.39;56.80;101789.84;4888981;29;20234;-84
2022/08/22 08:18:28;;;;;;;;;;;;;;;;;;;;;
2022/08/22 08:21:03;;;;;;;7.85;2.90;;;;;;;25.89;56.45;101786.72;4903630;29;20225;-83
2022/08/22 08:24:27;;;;;;;;;;;;;;;;;;;;;
2022/08/22 08:30:46;;;;;;;9.50;2.88;;;;;;;25.76;55.24;101780.97;4908945;29;20219;-83
2022/08/22 08:37:04;;;;;;;10.85;2.70;;;;;;;26.45;52.17;101773.66;4906037;29;20187;-82
2022/08/22 08:44:02;;;;;;;6.32;2.40;;;;;;;26.99;51.19;101771.91;4882179;29;20482;-82
2022/08/22 08:46:42;;;;;;;9.02;2.90;;;;;;;27.30;50.95;101771.78;4899775;29;20198;-83
2022/08/22 08:49:43;;;;;;;8.95;2.83;;;;;;;27.20;49.75;101773.00;4914272;29;20195;-85
2022/08/22 08:52:57;;;;;;;11.85;2.80;;;;;;;27.42;50.39;101763.44;4900939;29;20682;-85
2022/08/22 08:55:57;;;;;;;9.65;2.33;;;;;;;27.44;47.67;101761.66;4907645;29;20213;-85
2022/08/22 08:58:52;;;;;;;;;;;;;;;;;;;;;
2022/08/22 09:01:45;;;;;;;7.60;2.33;;;;;;;27.87;46.68;101749.50;4914720;29;20221;-85
2022/08/22 09:05:05;;;;;;;6.82;2.35;;;;;;;27.89;46.96;101760.00;4918636;29;20182;-85
2022/08/22 09:08:05;;;;;;;9.45;2.38;;;;;;;28.04;47.72;101751.53;4877755;29;20298;-84
2022/08/22 09:11:09;;;;;;;5.80;2.47;;;;;;;28.48;47.21;101754.19;4882487;29;20214;-84
2022/08/22 09:14:15;;;;;;;8.38;2.47;;;;;;;28.57;46.40;101748.56;4910315;29;20218;-82
2022/08/22 09:17:31;;;;;;;7.85;2.55;;;;;;;28.99;44.90;101748.59;4871111;29;20233;-82
2022/08/22 09:20:30;;;;;;;7.72;2.30;;;;;;;28.75;43.76;101752.22;4863612;29;20562;-82
2022/08/22 09:24:24;;;;;;;5.90;2.10;;;;;;;29.29;42.67;101742.00;4904693;29;21085;-83
2022/08/22 09:27:25;;;;;;;6.40;2.00;;;;;;;29.09;42.02;101742.84;4899225;29;20202;-83
2022/08/22 09:30:18;;;;;;;3.67;2.17;;;;;;;29.38;41.06;101742.44;4894276;29;20207;-84
2022/08/22 09:33:00;;;;;;;5.90;2.28;;;;;;;29.11;42.68;101743.63;4895603;29;20230;-85
2022/08/22 09:35:41;;;;;;;7.22;1.85;;;;;;;29.62;41.61;101740.56;4897774;29;20207;-84
2022/08/22 09:38:48;;;;;;;;;;;;;;;;;;;;;
2022/08/22 09:45:10;;;;;;;4.93;2.10;;;;;;;30.22;38.65;101724.53;4885869;29;20190;-84
2022/08/22 09:51:41;;;;;;;4.78;2.10;;;;;;;30.51;37.36;101724.00;4912156;29;20213;-84
2022/08/22 09:55:10;;;;;;;3.20;1.60;;;;;;;29.84;38.36;101726.28;4889847;29;20216;-82
2022/08/22 09:57:49;;;;;;;4.22;1.80;;;;;;;29.85;38.31;101730.63;4877419;29;20202;-86
2022/08/22 10:00:19;;;;;;;5.15;1.92;;;;;;;29.96;38.32;101725.75;4894492;29;20724;-84
2022/08/22 10:03:10;;;;;;;8.68;2.20;;;;;;;29.55;38.98;101720.56;4887106;29;20218;-82
2022/08/22 10:05:44;;;;;;;3.85;1.73;;;;;;;29.33;38.98;101715.41;4904169;29;20187;-82
2022/08/22 10:08:17;;;;;;;5.95;2.28;;;;;;;29.60;39.44;101713.34;4891000;29;20210;-85
2022/08/22 10:10:49;;;;;;;4.13;1.70;;;;;;;30.38;37.33;101708.81;4906246;29;20219;-85
2022/08/22 10:13:37;;;;;;;5.07;2.03;;;;;;;30.64;37.26;101709.22;4898233;29;20222;-84
2022/08/22 10:16:23;;;;;;;5.57;1.90;;;;;;;31.21;36.20;101708.97;4907677;29;20182;-84
2022/08/22 10:19:07;;;;;;;6.78;1.73;;;;;;;30.32;37.32;101712.59;4910453;29;20195;-85
2022/08/22 10:21:38;;;;;;;5.38;2.10;;;;;;;30.35;38.81;101704.53;4887177;29;20322;-85
2022/08/22 10:24:18;;;;;;;4.95;2.13;;;;;;;31.04;36.53;101701.03;4909104;29;20785;-85
2022/08/22 10:26:49;;;;;;;6.15;2.08;;;;;;;31.30;35.74;101703.19;4889805;29;20191;-84
2022/08/22 10:29:43;;;;;;;6.90;2.30;;;;;;;30.81;37.05;101703.13;4887283;29;20193;-83
2022/08/22 10:32:40;;;;;;;5.70;1.95;;;;;;;30.33;38.23;101700.25;4905377;29;20352;-84
2022/08/22 10:35:28;;;;;;;5.78;2.10;;;;;;;30.35;36.51;101704.53;4891471;29;20202;-85
2022/08/22 10:38:04;;;;;;;2.92;1.88;;;;;;;30.82;35.58;101705.69;4893409;29;20198;-84
2022/08/22 10:40:57;;;;;;;4.82;1.95;;;;;;;31.28;35.00;101701.56;4894140;29;20221;-83
2022/08/22 10:43:31;;;;;;;5.82;1.80;;;;;;;30.61;35.29;101695.31;4888164;29;20206;-84
2022/08/22 10:46:06;;;;;;;3.00;1.70;;;;;;;30.36;35.71;101705.34;4903762;29;20272;-83
2022/08/22 10:48:41;;;;;;;3.40;1.80;;;;;;;30.31;37.05;101695.03;4885723;29;20182;-83
2022/08/22 10:51:17;;;;;;;5.63;1.85;;;;;;;30.20;36.32;101696.47;4909643;29;20238;-84
2022/08/22 10:53:52;;;;;;;5.63;1.73;;;;;;;30.48;35.83;101689.75;4896511;29;20218;-85
2022/08/22 10:56:26;;;;;;;5.00;1.98;;;;;;;31.27;35.43;101698.09;4894972;29;20190;-84
2022/08/22 10:59:01;;;;;;;3.20;1.77;;;;;;;31.57;32.93;101692.91;4901075;29;20195;-83
2022/08/22 11:01:32;;;;;;;4.03;1.83;;;;;;;31.61;33.35;101697.13;4881093;29;20642;-82
2022/08/22 11:04:19;;;;;;;3.67;1.90;;;;;;;30.13;35.37;101691.44;4901629;29;20277;-82
2022/08/22 11:06:55;;;;;;;5.63;2.40;;;;;;;28.70;37.59;101704.91;4892801;29;20661;-84
2022/08/22 11:09:55;;;;;;;6.70;1.80;;;;;;;29.40;37.24;101698.38;4886894;29;20197;-83
2022/08/22 11:12:41;;;;;;;2.92;1.80;;;;;;;29.63;36.88;101703.50;4902964;29;20540;-82
2022/08/22 11:15:48;;;;;;;3.30;1.58;;;;;;;30.00;36.62;101695.59;4884948;29;20822;-84
2022/08/22 11:18:19;;;;;;;3.65;1.70;;;;;;;30.98;36.39;101690.75;4888370;29;20669;-84
2022/08/22 11:20:44;;;;;;;6.57;1.75;;;;;;;30.92;35.01;101691.06;4903036;29;20215;-83
2022/08/22 11:23:40;;;;;;;5.13;1.88;;;;;;;31.15;35.19;101684.56;4908266;29;20257;-84
2022/08/22 11:26:18;;;;;;;4.88;2.10;;;;;;;30.24;35.99;101685.66;4905559;29;20222;-83
2022/08/22 11:29:02;;;;;;;3.40;1.52;;;;;;;30.37;37.22;101683.25;4902420;29;20191;-83
2022/08/22 11:31:48;;;;;;;3.00;1.75;;;;;;;31.16;35.78;101681.00;4882086;29;20211;-83
2022/08/22 11:34:42;;;;;;;4.15;1.95;;;;;;;31.70;34.11;101683.38;4872368;29;20237;-84
2022/08/22 11:37:31;;;;;;;6.88;2.22;;;;;;;31.96;32.97;101683.72;4907219;29;20290;-85
2022/08/22 11:40:12;;;;;;;4.47;1.80;;;;;;;31.41;34.71;101684.97;4898814;29;20198;-84
2022/08/22 11:43:07;;;;;;;4.20;1.83;;;;;;;31.16;34.77;101684.50;4903938;29;20226;-82
2022/08/22 11:45:56;;;;;;;4.65;2.08;;;;;;;31.06;33.57;101672.69;4879154;29;20218;-83
2022/08/22 11:48:53;;;;;;;4.32;1.88;;;;;;;29.86;35.05;101678.66;4875893;29;20199;-82
2022/08/22 11:51:29;;;;;;;4.72;1.92;;;;;;;31.04;34.94;101669.25;4910753;29;20222;-84
2022/08/22 11:54:28;;;;;;;3.83;1.75;;;;;;;31.65;34.51;101675.69;4874039;29;20210;-84
2022/08/22 11:57:14;;;;;;;2.08;1.60;;;;;;;31.33;34.07;101676.56;4875875;29;20250;-84
2022/08/22 12:00:31;;;;;;;3.38;1.73;;;;;;;31.63;33.50;101669.59;4870796;29;20207;-84
2022/08/22 12:03:05;;;;;;;5.50;2.00;;;;;;;31.91;33.16;101672.47;4880361;29;20286;-83
2022/08/22 12:05:43;;;;;;;4.53;1.80;;;;;;;31.24;34.14;101663.81;4903227;29;20207;-84
2022/08/22 12:08:22;;;;;;;5.38;1.90;;;;;;;31.60;33.47;101663.63;4908598;29;20195;-83
2022/08/22 12:10:57;;;;;;;4.88;1.60;;;;;;;31.86;33.15;101668.38;4908715;29;20589;-84
2022/08/22 12:13:48;;;;;;;6.97;2.08;;;;;;;32.17;32.50;101658.63;4910334;29;20701;-83
2022/08/22 12:16:41;;;;;;;3.70;1.77;;;;;;;32.39;32.77;101651.16;4901794;29;20193;-84
2022/08/22 12:19:19;;;;;;;2.83;1.85;;;;;;;32.03;31.47;101660.31;4914373;29;20745;-82
2022/08/22 12:22:10;;;;;;;6.30;1.80;;;;;;;31.55;31.06;101652.41;4909177;29;20233;-84
2022/08/22 12:24:45;;;;;;;4.35;1.63;;;;;;;32.05;33.20;101654.03;4872633;29;20291;-84
2022/08/22 12:27:44;;;;;;;4.70;1.70;;;;;;;32.23;31.82;101654.75;4894186;29;20210;-83
2022/08/22 12:30:35;;;;;;;5.35;2.10;;;;;;;31.81;31.40;101657.19;4910990;29;20581;-84
2022/08/22 12:33:37;;;;;;;3.08;1.60;;;;;;;30.57;33.88;101662.00;4913510;29;20226;-83
2022/08/22 12:36:42;;;;;;;2.88;1.80;;;;;;;31.11;32.85;101652.09;4910675;29;20685;-82
2022/08/22 12:39:38;;;;;;;3.22;1.52;;;;;;;31.61;32.61;101652.94;4906035;29;20205;-82
2022/08/22 12:42:30;;;;;;;4.60;1.83;;;;;;;30.96;33.73;101652.91;4907818;29;20302;-83
2022/08/22 12:45:26;;;;;;;4.28;1.55;;;;;;;31.46;32.36;101648.47;4879972;29;20289;-84
2022/08/22 12:48:22;;;;;;;3.63;1.70;;;;;;;31.04;33.27;101641.91;4880737;29;20195;-84
2022/08/22 12:51:15;;;;;;;3.17;1.88;;;;;;;30.76;33.90;101644.28;4905238;29;20219;-84
2022/08/22 12:54:01;;;;;;;2.60;1.60;;;;;;;31.10;33.20;101642.47;4903000;29;20231;-83
2022/08/22 12:56:45;;;;;;;3.75;1.80;;;;;;;31.61;33.56;101647.63;4899575;29;20191;-83
2022/08/22 12:59:18;;;;;;;7.72;1.88;;;;;;;30.66;33.00;101643.00;4910145;29;20230;-83
2022/08/22 13:01:46;;;;;;;3.95;2.05;;;;;;;30.59;34.85;101638.94;4894692;29;20206;-83
2022/08/22 13:04:16;;;;;;;5.07;2.10;;;;;;;30.45;34.05;101633.50;4913819;29;20274;-84
2022/08/22 13:06:52;;;;;;;3.10;1.60;;;;;;;31.04;32.65;101626.91;4891989;29;20628;-84
2022/08/22 13:09:27;;;;;;;5.60;1.88;;;;;;;31.46;32.53;101634.38;4910270;29;20281;-84
2022/08/22 13:11:56;;;;;;;3.10;1.55;;;;;;;30.97;31.59;101625.50;4888427;29;20301;-84
2022/08/22 13:14:25;;;;;;;4.28;1.90;;;;;;;31.33;32.96;101625.38;4912147;29;20253;-84
2022/08/22 13:16:55;;;;;;;4.72;2.05;;;;;;;31.74;33.41;101621.31;4896570;29;20743;-83
2022/08/22 13:19:51;;;;;;;3.80;1.50;;;;;;;32.09;31.28;101612.28;4906803;29;20621;-84
2022/08/22 13:22:23;;;;;;;2.83;1.50;;;;;;;32.12;31.35;101618.25;4892648;29;20204;-84
2022/08/22 13:24:57;;;;;;;3.63;1.95;;;;;;;31.83;31.33;101612.88;4896362;29;20191;-85
2022/08/22 13:27:30;;;;;;;3.47;1.63;;;;;;;32.00;31.29;101623.41;4893898;29;20198;-84
2022/08/22 13:30:03;;;;;;;2.67;1.63;;;;;;;32.23;31.82;101613.16;4912267;29;20688;-84
2022/08/22 13:32:38;;;;;;;3.78;1.90;;;;;;;32.29;31.62;101614.66;4903532;29;20195;-85
2022/08/22 13:35:06;;;;;;;4.82;1.83;;;;;;;32.11;31.43;101616.53;4906473;29;20587;-84
2022/08/22 13:37:42;;;;;;;3.80;1.40;;;;;;;32.40;32.35;101609.56;4914339;29;20269;-84
2022/08/22 13:40:12;;;;;;;2.40;1.40;;;;;;;32.64;31.31;101616.94;4916830;29;20287;-83
2022/08/22 13:42:47;;;;;;;3.38;2.03;;;;;;;33.12;31.18;101608.69;4901902;29;20740;-84
2022/08/22 13:45:23;;;;;;;2.60;1.40;;;;;;;32.77;31.23;101617.06;4873558;29;20194;-84
2022/08/22 13:47:57;;;;;;;4.95;1.90;;;;;;;32.70;33.93;101621.91;4905256;29;20665;-83
2022/08/22 13:50:27;;;;;;;5.15;2.05;;;;;;;31.42;36.39;101619.56;4907595;29;20224;-82
2022/08/22 13:53:00;;;;;;;4.63;1.80;;;;;;;31.03;36.53;101622.53;4908308;29;20198;-83
2022/08/22 13:55:32;;;;;;;4.00;1.98;;;;;;;30.50;37.79;101629.69;4890960;29;20795;-83
2022/08/22 13:58:11;;;;;;;4.45;2.25;;;;;;;30.45;37.79;101625.56;4912200;29;20269;-82
2022/08/22 14:00:56;;;;;;;6.88;2.08;;;;;;;30.63;38.48;101624.63;4904020;29;20229;-84
2022/08/22 14:03:30;;;;;;;4.45;1.83;;;;;;;30.44;38.66;101621.22;4911254;29;20835;-84
2022/08/22 14:05:58;;;;;;;3.45;1.60;;;;;;;30.76;37.45;101624.00;4908113;29;20207;-83
2022/08/22 14:08:27;;;;;;;5.85;2.10;;;;;;;31.13;37.93;101612.31;4893930;29;20842;-83
2022/08/22 14:10:58;;;;;;;3.53;1.80;;;;;;;30.96;37.36;101607.03;4905754;29;20234;-84
2022/08/22 14:13:49;;;;;;;6.50;2.20;;;;;;;30.69;37.93;101617.28;4904314;29;20195;-83
2022/08/22 14:16:27;;;;;;;6.35;2.00;;;;;;;30.46;39.31;101617.56;4892833;29;20599;-82
2022/08/22 14:18:57;;;;;;;5.50;2.03;;;;;;;30.23;38.53;101615.19;4906157;29;20247;-83
2022/08/22 14:21:29;;;;;;;4.20;2.03;;;;;;;30.25;39.00;101612.50;4906637;29;20225;-84
2022/08/22 14:24:09;;;;;;;4.55;2.28;;;;;;;30.49;39.58;101612.13;4878973;29;20670;-84
2022/08/22 14:26:38;;;;;;;5.18;2.08;;;;;;;30.76;38.82;101612.53;4895615;29;20192;-85
2022/08/22 14:29:10;;;;;;;5.75;1.90;;;;;;;30.30;39.76;101607.81;4913985;29;20183;-83
2022/08/22 14:31:36;;;;;;;5.50;2.00;;;;;;;30.02;40.63;101619.72;4901087;29;20222;-84
2022/08/22 14:34:12;;;;;;;5.43;1.90;;;;;;;29.83;41.75;101604.81;4908003;29;20209;-83
2022/08/22 14:37:13;;;;;;;4.97;2.33;;;;;;;29.55;41.25;101610.56;4901448;29;20191;-83
2022/08/22 14:39:47;;;;;;;5.93;2.15;;;;;;;29.51;41.16;101608.94;4888960;29;20198;-85
2022/08/22 14:42:24;;;;;;;3.28;1.95;;;;;;;29.20;40.58;101615.72;4885123;29;20206;-83
2022/08/22 14:45:18;;;;;;;6.10;1.83;;;;;;;28.95;41.77;101607.97;4892509;29;20189;-82
2022/08/22 14:47:50;;;;;;;5.55;1.85;;;;;;;29.27;41.74;101606.56;4900883;29;20266;-83
2022/08/22 14:50:33;;;;;;;5.07;1.98;;;;;;;29.24;43.00;101607.56;4902271;29;20218;-83
2022/08/22 14:53:08;;;;;;;6.05;2.30;;;;;;;29.29;42.42;101602.94;4909528;29;20245;-84
2022/08/22 14:55:35;;;;;;;6.18;1.73;;;;;;;28.93;42.86;101603.69;4897804;29;20194;-84
2022/08/22 14:58:21;;;;;;;5.80;1.77;;;;;;;28.87;42.55;101602.19;4907651;29;20206;-84
2022/08/22 15:00:49;;;;;;;4.15;2.00;;;;;;;29.12;42.34;101600.22;4885934;29;20226;-82
2022/08/22 15:03:24;;;;;;;4.60;2.20;;;;;;;29.25;42.61;101588.16;4903816;29;20186;-84
2022/08/22 15:06:03;;;;;;;4.78;2.00;;;;;;;29.13;42.13;101601.94;4909500;29;20194;-83